createdAt,value
2017-08-20T00:00:48.374Z,99.8
2017-08-20T00:02:00.999Z,99.23
2017-08-20T00:03:13.039Z,99.43
2017-08-20T00:04:25.034Z,99.14
2017-08-20T00:05:37.623Z,99.52
2017-08-20T00:06:49.912Z,99.23
2017-08-20T00:08:02.125Z,99.33
2017-08-20T00:09:14.737Z,99.43
2017-08-20T00:10:27.359Z,98.85
2017-08-20T00:11:39.634Z,98.85
2017-08-20T00:12:52.266Z,98.57
2017-08-20T00:14:04.887Z,98.85
2017-08-20T00:15:17.124Z,98.75
2017-08-20T00:16:29.737Z,98.57
2017-08-20T00:17:41.706Z,98.75
2017-08-20T00:18:54.322Z,98.57
2017-08-20T00:20:06.291Z,98.71
2017-08-20T00:21:18.862Z,98.9
2017-08-20T00:22:31.466Z,98.32
2017-08-20T00:23:43.727Z,98.32
2017-08-20T00:24:55.742Z,98.99
2017-08-20T00:26:08.076Z,98.71
2017-08-20T00:27:20.424Z,98.8
2017-08-20T00:28:32.999Z,98.23
2017-08-20T00:29:44.957Z,98.42
2017-08-20T00:30:57.223Z,98.52
2017-08-20T00:32:09.541Z,98.61
2017-08-20T00:33:22.186Z,98.52
2017-08-20T00:34:34.828Z,98.42
2017-08-20T00:35:47.441Z,98.52
2017-08-20T00:36:59.697Z,98.8
2017-08-20T00:38:12.300Z,98.71
2017-08-20T00:39:24.581Z,98.61
2017-08-20T00:40:37.193Z,98.03
2017-08-20T00:41:49.221Z,98.03
2017-08-20T00:43:01.527Z,97.27
2017-08-20T00:44:14.142Z,97.08
2017-08-20T00:45:26.701Z,96.98
2017-08-20T00:46:38.688Z,96.89
2017-08-20T00:47:50.759Z,97.27
2017-08-20T00:49:03.351Z,97.27
2017-08-20T00:50:15.923Z,97.18
2017-08-20T00:51:28.511Z,97.37
2017-08-20T00:52:40.561Z,97.37
2017-08-20T00:53:52.554Z,96.8
2017-08-20T00:55:04.820Z,97.08
2017-08-20T00:56:17.378Z,96.32
2017-08-20T00:57:29.963Z,96.13
2017-08-20T00:58:42.502Z,96.61
2017-08-20T00:59:54.734Z,96.98
2017-08-20T01:01:07.400Z,96.46
2017-08-20T01:02:19.646Z,96.46
2017-08-20T01:03:32.234Z,96.94
2017-08-20T01:04:44.510Z,96.37
2017-08-20T01:05:56.834Z,96.27
2017-08-20T01:07:09.409Z,96.37
2017-08-20T01:08:22.027Z,96.56
2017-08-20T01:09:34.630Z,96.27
2017-08-20T01:10:47.263Z,96.37
2017-08-20T01:11:59.753Z,96.08
2017-08-20T01:13:12.262Z,96.46
2017-08-20T01:14:24.894Z,96.46
2017-08-20T01:15:37.440Z,96.27
2017-08-20T01:16:49.993Z,96.27
2017-08-20T01:18:01.637Z,96.27
2017-08-20T01:19:13.962Z,96.66
2017-08-20T01:20:26.254Z,96.46
2017-08-20T01:21:38.494Z,95.51
2017-08-20T01:22:50.746Z,95.7
2017-08-20T01:24:03.301Z,96.17
2017-08-20T01:25:15.562Z,95.79
2017-08-20T01:26:28.100Z,95.7
2017-08-20T01:27:40.703Z,95.22
2017-08-20T01:28:53.237Z,95.89
2017-08-20T01:30:05.546Z,95.41
2017-08-20T01:31:17.877Z,94.65
2017-08-20T01:32:30.536Z,94.84
2017-08-20T01:33:43.131Z,94.84
2017-08-20T01:34:55.764Z,94.46
2017-08-20T01:36:08.333Z,94.74
2017-08-20T01:37:20.355Z,94.93
2017-08-20T01:38:32.933Z,94.65
2017-08-20T01:39:45.471Z,94.93
2017-08-20T01:40:58.022Z,95.12
2017-08-20T01:42:10.305Z,94.07
2017-08-20T01:43:22.895Z,94.74
2017-08-20T01:44:35.455Z,94.07
2017-08-20T01:45:47.788Z,94.84
2017-08-20T01:47:00.377Z,94.27
2017-08-20T01:48:12.955Z,94.07
2017-08-20T01:49:25.599Z,93.98
2017-08-20T01:50:37.552Z,93.41
2017-08-20T01:51:50.165Z,93.79
2017-08-20T01:53:02.391Z,94.07
2017-08-20T01:54:15.016Z,93.22
2017-08-20T01:55:27.803Z,93.6
2017-08-20T01:56:39.778Z,93.27
2017-08-20T01:57:52.372Z,93.41
2017-08-20T01:59:04.466Z,92.36
2017-08-20T02:00:17.041Z,93.31
2017-08-20T02:01:29.662Z,92.83
2017-08-20T02:02:42.220Z,92.83
2017-08-20T02:03:54.798Z,92.07
2017-08-20T02:05:07.406Z,91.88
2017-08-20T02:06:19.955Z,92.17
2017-08-20T02:07:32.557Z,92.55
2017-08-20T02:08:44.553Z,92.83
2017-08-20T02:09:56.552Z,92.07
2017-08-20T02:11:09.147Z,92.79
2017-08-20T02:12:21.744Z,92.65
2017-08-20T02:13:33.773Z,91.78
2017-08-20T02:14:46.029Z,92.03
2017-08-20T02:15:57.985Z,91.93
2017-08-20T02:17:10.550Z,91.55
2017-08-20T02:18:23.196Z,91.46
2017-08-20T02:19:35.827Z,91.93
2017-08-20T02:20:48.111Z,91.55
2017-08-20T02:22:00.781Z,91.07
2017-08-20T02:23:13.103Z,91.07
2017-08-20T02:24:25.656Z,90.59
2017-08-20T02:25:38.212Z,90.59
2017-08-20T02:26:50.768Z,90.41
2017-08-20T02:28:03.386Z,89.93
2017-08-20T02:29:15.950Z,90.41
2017-08-20T02:30:28.277Z,90.22
2017-08-20T02:31:40.539Z,89.64
2017-08-20T02:32:52.854Z,89.54
2017-08-20T02:34:05.190Z,89.36
2017-08-20T02:35:17.483Z,89.74
2017-08-20T02:36:29.748Z,89.07
2017-08-20T02:37:41.667Z,88.69
2017-08-20T02:38:54.252Z,88.5
2017-08-20T02:40:06.828Z,87.64
2017-08-20T02:41:19.416Z,87.93
2017-08-20T02:42:31.949Z,87.74
2017-08-20T02:43:43.585Z,86.78
2017-08-20T02:44:55.867Z,87.45
2017-08-20T02:46:07.517Z,87.54
2017-08-20T02:47:19.741Z,87.54
2017-08-20T02:48:31.694Z,86.59
2017-08-20T02:49:44.259Z,87.64
2017-08-20T02:50:56.571Z,87.16
2017-08-20T02:52:09.177Z,86.49
2017-08-20T02:53:21.774Z,86.49
2017-08-20T02:54:33.142Z,86.49
2017-08-20T02:55:45.415Z,86.11
2017-08-20T02:56:57.674Z,86.3
2017-08-20T02:58:09.929Z,85.83
2017-08-20T02:59:22.201Z,85.73
2017-08-20T03:00:34.760Z,85.64
2017-08-20T03:01:47.349Z,85.16
2017-08-20T03:02:59.962Z,85.45
2017-08-20T03:04:12.598Z,84.83
2017-08-20T03:05:25.184Z,84.69
2017-08-20T03:06:37.753Z,85.35
2017-08-20T03:07:50.051Z,85.5
2017-08-20T03:09:02.330Z,85.12
2017-08-20T03:10:14.985Z,85.16
2017-08-20T03:11:27.615Z,84.49
2017-08-20T03:12:40.153Z,84.49
2017-08-20T03:13:52.138Z,84.07
2017-08-20T03:15:04.715Z,84.16
2017-08-20T03:16:16.972Z,84.01
2017-08-20T03:17:29.584Z,83.5
2017-08-20T03:18:41.881Z,83.31
2017-08-20T03:19:54.141Z,83.4
2017-08-20T03:21:06.073Z,81.88
2017-08-20T03:22:18.665Z,82.17
2017-08-20T03:23:31.238Z,81.49
2017-08-20T03:24:43.231Z,81.78
2017-08-20T03:25:55.530Z,81.49
2017-08-20T03:27:07.833Z,80.83
2017-08-20T03:28:20.451Z,81.21
2017-08-20T03:29:32.981Z,81.21
2017-08-20T03:30:45.566Z,81.3
2017-08-20T03:31:58.098Z,81.3
2017-08-20T03:33:10.075Z,80.64
2017-08-20T03:34:22.675Z,81.4
2017-08-20T03:35:35.217Z,81.3
2017-08-20T03:36:47.798Z,81.68
2017-08-20T03:38:00.109Z,80.35
2017-08-20T03:39:12.058Z,80.64
2017-08-20T03:40:24.324Z,80.07
2017-08-20T03:41:36.620Z,79.68
2017-08-20T03:42:49.166Z,79.11
2017-08-20T03:44:01.756Z,78.92
2017-08-20T03:45:14.331Z,78.92
2017-08-20T03:46:26.909Z,79.59
2017-08-20T03:47:39.498Z,78.83
2017-08-20T03:48:52.177Z,78.44
2017-08-20T03:50:04.693Z,79.3
2017-08-20T03:51:16.962Z,79.3
2017-08-20T03:52:29.525Z,79.11
2017-08-20T03:53:41.786Z,78.92
2017-08-20T03:54:54.101Z,79.11
2017-08-20T03:56:06.670Z,78.16
2017-08-20T03:57:18.646Z,78.35
2017-08-20T03:58:31.188Z,78.35
2017-08-20T03:59:43.487Z,78.54
2017-08-20T04:00:56.093Z,77.4
2017-08-20T04:02:08.677Z,78.35
2017-08-20T04:03:20.941Z,78.06
2017-08-20T04:04:33.528Z,78.73
2017-08-20T04:05:45.843Z,77.69
2017-08-20T04:06:58.106Z,78.69
2017-08-20T04:08:10.424Z,78.22
2017-08-20T04:09:22.719Z,78.69
2017-08-20T04:10:34.966Z,77.93
2017-08-20T04:11:47.318Z,77.93
2017-08-20T04:12:59.936Z,77.45
2017-08-20T04:14:12.503Z,77.93
2017-08-20T04:15:25.047Z,77.17
2017-08-20T04:16:37.593Z,77.45
2017-08-20T04:17:50.190Z,77.45
2017-08-20T04:19:02.499Z,77.36
2017-08-20T04:20:15.065Z,77.45
2017-08-20T04:21:27.729Z,77.55
2017-08-20T04:22:40.035Z,77.74
2017-08-20T04:23:52.053Z,77.64
2017-08-20T04:25:04.386Z,77.45
2017-08-20T04:26:16.676Z,76.59
2017-08-20T04:27:29.265Z,76.88
2017-08-20T04:28:41.878Z,76.69
2017-08-20T04:29:54.227Z,76.21
2017-08-20T04:31:06.467Z,75.64
2017-08-20T04:32:19.087Z,75.45
2017-08-20T04:33:31.886Z,76.12
2017-08-20T04:34:44.183Z,76.03
2017-08-20T04:35:56.805Z,75.16
2017-08-20T04:37:08.772Z,75.84
2017-08-20T04:38:21.289Z,75.45
2017-08-20T04:39:33.602Z,76.03
2017-08-20T04:40:45.881Z,75.64
2017-08-20T04:41:58.201Z,75.36
2017-08-20T04:43:10.190Z,75.26
2017-08-20T04:44:22.841Z,75.07
2017-08-20T04:45:35.081Z,75.26
2017-08-20T04:46:47.359Z,75.26
2017-08-20T04:47:59.573Z,74.69
2017-08-20T04:49:12.435Z,74.6
2017-08-20T04:50:24.770Z,74.88
2017-08-20T04:51:36.442Z,74.5
2017-08-20T04:52:48.980Z,73.83
2017-08-20T04:54:00.958Z,73.65
2017-08-20T04:55:13.508Z,73.26
2017-08-20T04:56:26.066Z,73.93
2017-08-20T04:57:38.063Z,73.83
2017-08-20T04:58:50.641Z,73.93
2017-08-20T05:00:03.211Z,73.83
2017-08-20T05:01:15.535Z,73.17
2017-08-20T05:02:27.878Z,73.17
2017-08-20T05:03:40.422Z,73.36
2017-08-20T05:04:52.701Z,73.45
2017-08-20T05:06:05.290Z,73.83
2017-08-20T05:07:17.866Z,73.55
2017-08-20T05:08:30.464Z,73.55
2017-08-20T05:09:43.030Z,73.45
2017-08-20T05:10:55.625Z,73.45
2017-08-20T05:12:08.246Z,73.45
2017-08-20T05:13:20.515Z,72.88
2017-08-20T05:14:32.790Z,72.69
2017-08-20T05:15:45.065Z,72.5
2017-08-20T05:16:57.392Z,72.41
2017-08-20T05:18:09.911Z,72.78
2017-08-20T05:19:22.140Z,72.78
2017-08-20T05:20:34.438Z,72.69
2017-08-20T05:21:46.661Z,72.72
2017-08-20T05:22:58.982Z,72.41
2017-08-20T05:24:11.305Z,72.25
2017-08-20T05:25:23.594Z,72.25
2017-08-20T05:26:36.149Z,72.16
2017-08-20T05:27:47.829Z,72.06
2017-08-20T05:29:00.405Z,72.34
2017-08-20T05:30:12.737Z,72.16
2017-08-20T05:31:25.354Z,72.06
2017-08-20T05:32:37.695Z,72.25
2017-08-20T05:33:49.982Z,71.96
2017-08-20T05:35:02.533Z,71.96
2017-08-20T05:36:15.108Z,71.68
2017-08-20T05:37:27.409Z,71.48
2017-08-20T05:38:39.413Z,71.39
2017-08-20T05:39:52.011Z,71.2
2017-08-20T05:41:04.289Z,71.3
2017-08-20T05:42:16.836Z,71.2
2017-08-20T05:43:29.403Z,71.2
2017-08-20T05:44:41.727Z,71.01
2017-08-20T05:45:53.712Z,71.01
2017-08-20T05:47:06.315Z,71.01
2017-08-20T05:48:18.883Z,71.11
2017-08-20T05:49:31.410Z,71.01
2017-08-20T05:50:43.428Z,70.53
2017-08-20T05:51:56.034Z,71.2
2017-08-20T05:53:08.300Z,71.04
2017-08-20T05:54:20.614Z,71.23
2017-08-20T05:55:33.188Z,70.86
2017-08-20T05:56:45.210Z,71.14
2017-08-20T05:57:57.833Z,71.23
2017-08-20T05:59:10.096Z,70.76
2017-08-20T06:00:22.044Z,70.47
2017-08-20T06:01:34.350Z,70.67
2017-08-20T06:02:46.677Z,70.95
2017-08-20T06:03:58.602Z,70.95
2017-08-20T06:05:10.839Z,70.86
2017-08-20T06:06:23.105Z,71.23
2017-08-20T06:07:35.728Z,71.46
2017-08-20T06:08:48.317Z,71.46
2017-08-20T06:10:00.962Z,72.03
2017-08-20T06:11:13.554Z,72.71
2017-08-20T06:12:26.142Z,72.42
2017-08-20T06:13:38.373Z,72.89
2017-08-20T06:14:50.941Z,74.17
2017-08-20T06:16:02.874Z,75.79
2017-08-20T06:17:15.518Z,75.98
2017-08-20T06:18:28.103Z,75.7
2017-08-20T06:19:40.416Z,79.43
2017-08-20T06:20:53.043Z,78.66
2017-08-20T06:22:05.667Z,78.85
2017-08-20T06:23:17.663Z,79.23
2017-08-20T06:24:30.265Z,80.95
2017-08-20T06:25:42.554Z,81.14
2017-08-20T06:26:54.877Z,80.99
2017-08-20T06:28:07.193Z,79.27
2017-08-20T06:29:19.756Z,79.56
2017-08-20T06:30:32.340Z,83.13
2017-08-20T06:31:44.054Z,82.28
2017-08-20T06:32:56.369Z,86.04
2017-08-20T06:34:08.620Z,90.96
2017-08-20T06:35:21.190Z,98.66
2017-08-20T06:36:33.227Z,99.99
2017-08-20T06:37:45.751Z,99.99
2017-08-20T06:38:58.027Z,99.99
2017-08-20T06:40:10.328Z,99.99
2017-08-20T06:41:22.944Z,99.99
2017-08-20T06:42:34.965Z,99.99
2017-08-20T06:43:47.527Z,99.99
2017-08-20T06:44:59.788Z,99.99
2017-08-20T06:46:12.363Z,99.99
2017-08-20T06:47:24.998Z,99.99
2017-08-20T06:48:37.630Z,99.99
2017-08-20T06:49:50.266Z,99.99
2017-08-20T06:51:02.870Z,99.99
2017-08-20T06:52:15.481Z,99.99
2017-08-20T06:53:28.077Z,99.99
2017-08-20T06:54:40.675Z,99.06
2017-08-20T06:55:52.992Z,97.57
2017-08-20T06:57:05.292Z,97.38
2017-08-20T06:58:17.576Z,97.91
2017-08-20T06:59:30.133Z,96.94
2017-08-20T07:00:42.393Z,97.38
2017-08-20T07:01:54.924Z,97.28
2017-08-20T07:03:07.274Z,96.17
2017-08-20T07:04:19.901Z,95.59
2017-08-20T07:05:32.784Z,94.29
2017-08-20T07:06:44.781Z,93.71
2017-08-20T07:07:57.428Z,92.32
2017-08-20T07:09:09.731Z,91.35
2017-08-20T07:10:22.365Z,91.59
2017-08-20T07:11:34.986Z,92.26
2017-08-20T07:12:47.584Z,92.07
2017-08-20T07:13:59.579Z,90.57
2017-08-20T07:15:11.809Z,89.7
2017-08-20T07:16:24.375Z,88.49
2017-08-20T07:17:36.632Z,87.23
2017-08-20T07:18:49.237Z,85.11
2017-08-20T07:20:01.548Z,84.53
2017-08-20T07:21:14.118Z,86.21
2017-08-20T07:22:26.749Z,85.35
2017-08-20T07:23:39.051Z,85.93
2017-08-20T07:24:51.416Z,86.21
2017-08-20T07:26:04.053Z,85.77
2017-08-20T07:27:16.654Z,85.19
2017-08-20T07:28:29.218Z,85.1
2017-08-20T07:29:41.780Z,83.88
2017-08-20T07:30:53.774Z,83.3
2017-08-20T07:32:06.329Z,82.04
2017-08-20T07:33:18.881Z,82.23
2017-08-20T07:34:31.239Z,80.54
2017-08-20T07:35:43.851Z,80.82
2017-08-20T07:36:56.510Z,80.92
2017-08-20T07:38:08.818Z,79.85
2017-08-20T07:39:21.152Z,78.92
2017-08-20T07:40:33.719Z,79.22
2017-08-20T07:41:45.695Z,79.5
2017-08-20T07:42:57.948Z,79.41
2017-08-20T07:44:10.536Z,79.9
2017-08-20T07:45:23.174Z,78.58
2017-08-20T07:46:35.727Z,78.25
2017-08-20T07:47:48.022Z,77.67
2017-08-20T07:49:00.593Z,77.7
2017-08-20T07:50:12.796Z,77.7
2017-08-20T07:51:24.809Z,76.15
2017-08-20T07:52:37.071Z,75.87
2017-08-20T07:53:49.673Z,76.64
2017-08-20T07:55:02.019Z,75.48
2017-08-20T07:56:14.342Z,74.7
2017-08-20T07:57:26.653Z,74.64
2017-08-20T07:58:39.302Z,73.05
2017-08-20T07:59:51.585Z,73.83
2017-08-20T08:01:03.827Z,74.51
2017-08-20T08:02:16.135Z,73.05
2017-08-20T08:03:28.738Z,72.99
2017-08-20T08:04:41.354Z,72.51
2017-08-20T08:05:53.392Z,72.41
2017-08-20T08:07:06.011Z,72.71
2017-08-20T08:08:18.323Z,72.22
2017-08-20T08:09:30.893Z,71.48
2017-08-20T08:10:43.528Z,71.19
2017-08-20T08:11:55.287Z,72.16
2017-08-20T08:13:07.574Z,72.25
2017-08-20T08:14:20.265Z,72.12
2017-08-20T08:15:32.860Z,72.71
2017-08-20T08:16:45.133Z,73.35
2017-08-20T08:17:57.482Z,73.35
2017-08-20T08:19:10.098Z,74.8
2017-08-20T08:20:22.415Z,74.76
2017-08-20T08:21:34.707Z,76.28
2017-08-20T08:22:47.046Z,76.28
2017-08-20T08:23:58.725Z,76.46
2017-08-20T08:25:11.312Z,76.43
2017-08-20T08:26:23.290Z,77.01
2017-08-20T08:27:35.865Z,77.07
2017-08-20T08:28:48.499Z,78.03
2017-08-20T08:30:00.814Z,78.87
2017-08-20T08:31:12.800Z,78.58
2017-08-20T08:32:25.412Z,78.67
2017-08-20T08:33:38.000Z,79.31
2017-08-20T08:34:50.583Z,79.56
2017-08-20T08:36:02.931Z,80.24
2017-08-20T08:37:15.581Z,81.35
2017-08-20T08:38:28.195Z,82.03
2017-08-20T08:39:40.803Z,82.32
2017-08-20T08:40:53.386Z,83.77
2017-08-20T08:42:06.022Z,84.01
2017-08-20T08:43:18.921Z,84.01
2017-08-20T08:44:30.953Z,85.37
2017-08-20T08:45:43.212Z,85.23
2017-08-20T08:46:55.809Z,85.23
2017-08-20T08:48:08.147Z,85.03
2017-08-20T08:49:20.783Z,85.81
2017-08-20T08:50:33.385Z,86.44
2017-08-20T08:51:46.013Z,87.3
2017-08-20T08:52:58.630Z,86.82
2017-08-20T08:54:10.901Z,86.35
2017-08-20T08:55:23.238Z,87.02
2017-08-20T08:56:35.572Z,87.4
2017-08-20T08:57:47.519Z,87.55
2017-08-20T08:59:00.060Z,88.42
2017-08-20T09:00:12.706Z,87.84
2017-08-20T09:01:24.955Z,88.23
2017-08-20T09:02:36.984Z,89
2017-08-20T09:03:49.279Z,89.19
2017-08-20T09:05:01.581Z,88.32
2017-08-20T09:06:14.173Z,88.04
2017-08-20T09:07:26.154Z,88.9
2017-08-20T09:08:38.540Z,89.33
2017-08-20T09:09:51.114Z,89.23
2017-08-20T09:11:03.672Z,88.56
2017-08-20T09:12:16.253Z,88.27
2017-08-20T09:13:28.269Z,88.56
2017-08-20T09:14:40.641Z,87.79
2017-08-20T09:15:53.264Z,86.29
2017-08-20T09:17:05.931Z,85.52
2017-08-20T09:18:18.214Z,85.52
2017-08-20T09:19:30.491Z,86.48
2017-08-20T09:20:42.204Z,86.58
2017-08-20T09:21:54.768Z,86.58
2017-08-20T09:23:07.377Z,87.06
2017-08-20T09:24:19.576Z,87.26
2017-08-20T09:25:32.170Z,87.02
2017-08-20T09:26:44.449Z,87.12
2017-08-20T09:27:56.436Z,87.5
2017-08-20T09:29:08.731Z,87.7
2017-08-20T09:30:21.285Z,88.51
2017-08-20T09:31:33.872Z,88.81
2017-08-20T09:32:45.828Z,87.74
2017-08-20T09:33:58.179Z,87.94
2017-08-20T09:35:10.852Z,88.23
2017-08-20T09:36:23.520Z,87.94
2017-08-20T09:37:35.775Z,88.61
2017-08-20T09:38:47.995Z,88.95
2017-08-20T09:40:00.317Z,89.05
2017-08-20T09:41:12.871Z,90.01
2017-08-20T09:42:25.439Z,89.58
2017-08-20T09:43:37.776Z,88.95
2017-08-20T09:44:50.369Z,89.29
2017-08-20T09:46:01.795Z,89.48
2017-08-20T09:47:14.315Z,88.42
2017-08-20T09:48:26.597Z,87.17
2017-08-20T09:49:39.167Z,87.65
2017-08-20T09:50:51.135Z,87.12
2017-08-20T09:52:03.403Z,86.73
2017-08-20T09:53:15.354Z,86.44
2017-08-20T09:54:27.678Z,85.86
2017-08-20T09:55:39.944Z,86.35
2017-08-20T09:56:52.549Z,86.44
2017-08-20T09:58:05.170Z,86.92
2017-08-20T09:59:17.429Z,87.3
2017-08-20T10:00:30.029Z,86.92
2017-08-20T10:01:42.255Z,86.63
2017-08-20T10:02:54.239Z,85.09
2017-08-20T10:04:06.875Z,84.94
2017-08-20T10:05:18.850Z,84.46
2017-08-20T10:06:31.460Z,84.75
2017-08-20T10:07:44.103Z,85.23
2017-08-20T10:08:56.745Z,84.84
2017-08-20T10:10:09.020Z,84.55
2017-08-20T10:11:20.960Z,83.73
2017-08-20T10:12:33.523Z,82.76
2017-08-20T10:13:45.477Z,82.57
2017-08-20T10:14:58.122Z,82.48
2017-08-20T10:16:10.780Z,81.8
2017-08-20T10:17:23.345Z,80.74
2017-08-20T10:18:35.902Z,80.74
2017-08-20T10:19:48.472Z,80.26
2017-08-20T10:21:01.042Z,80.54
2017-08-20T10:22:13.347Z,81.41
2017-08-20T10:23:25.585Z,81.32
2017-08-20T10:24:37.831Z,81.22
2017-08-20T10:25:50.151Z,81.41
2017-08-20T10:27:02.835Z,81.6
2017-08-20T10:28:15.467Z,82.09
2017-08-20T10:29:27.431Z,82.38
2017-08-20T10:30:39.422Z,82.67
2017-08-20T10:31:51.989Z,81.32
2017-08-20T10:33:04.282Z,81.6
2017-08-20T10:34:16.856Z,81.51
2017-08-20T10:35:28.879Z,81.7
2017-08-20T10:36:41.555Z,81.07
2017-08-20T10:37:53.848Z,80.39
2017-08-20T10:39:06.496Z,80.58
2017-08-20T10:40:19.090Z,79.85
2017-08-20T10:41:31.126Z,78.79
2017-08-20T10:42:43.432Z,78.25
2017-08-20T10:43:55.725Z,78.06
2017-08-20T10:45:08.031Z,78.48
2017-08-20T10:46:20.589Z,78.03
2017-08-20T10:47:32.883Z,77.3
2017-08-20T10:48:44.605Z,76.33
2017-08-20T10:49:56.575Z,74.73
2017-08-20T10:51:08.884Z,73.75
2017-08-20T10:52:21.495Z,74.63
2017-08-20T10:53:33.762Z,74.53
2017-08-20T10:54:46.110Z,74.11
2017-08-20T10:55:58.773Z,74.69
2017-08-20T10:57:10.747Z,75.37
2017-08-20T10:58:23.352Z,75.46
2017-08-20T10:59:35.354Z,75.23
2017-08-20T11:00:47.674Z,75.62
2017-08-20T11:01:59.638Z,75.52
2017-08-20T11:03:12.199Z,76.74
2017-08-20T11:04:24.493Z,77.71
2017-08-20T11:05:37.140Z,77.22
2017-08-20T11:06:49.708Z,78.44
2017-08-20T11:08:02.342Z,78.48
2017-08-20T11:09:14.577Z,78.64
2017-08-20T11:10:26.865Z,78.44
2017-08-20T11:11:39.478Z,78.73
2017-08-20T11:12:52.163Z,78.64
2017-08-20T11:14:04.451Z,78.34
2017-08-20T11:15:16.102Z,78.06
2017-08-20T11:16:28.378Z,78.34
2017-08-20T11:17:41.021Z,78.25
2017-08-20T11:18:53.329Z,78.25
2017-08-20T11:20:06.173Z,76.64
2017-08-20T11:21:18.464Z,75.68
2017-08-20T11:22:31.047Z,75.2
2017-08-20T11:23:43.324Z,75.78
2017-08-20T11:24:55.931Z,76.26
2017-08-20T11:26:07.943Z,74.42
2017-08-20T11:27:19.972Z,74.42
2017-08-20T11:28:32.230Z,74.85
2017-08-20T11:29:44.506Z,74.85
2017-08-20T11:30:56.841Z,73.82
2017-08-20T11:32:09.403Z,72.75
2017-08-20T11:33:21.711Z,71.72
2017-08-20T11:34:33.740Z,70.79
2017-08-20T11:35:45.698Z,68.7
2017-08-20T11:36:57.956Z,67.08
2017-08-20T11:38:09.989Z,66.47
2017-08-20T11:39:22.269Z,65.33
2017-08-20T11:40:34.550Z,64.59
2017-08-20T11:41:47.144Z,63.52
2017-08-20T11:42:59.781Z,63.36
2017-08-20T11:44:11.734Z,62.71
2017-08-20T11:45:24.039Z,62.45
2017-08-20T11:46:36.268Z,61.02
2017-08-20T11:47:48.568Z,59.2
2017-08-20T11:49:00.875Z,59.23
2017-08-20T11:50:13.514Z,58.15
2017-08-20T11:51:25.525Z,58.61
2017-08-20T11:52:38.204Z,58.71
2017-08-20T11:53:50.188Z,58.81
2017-08-20T11:55:02.559Z,58.71
2017-08-20T11:56:14.910Z,57.93
2017-08-20T11:57:27.603Z,56.7
2017-08-20T11:58:39.873Z,57.54
2017-08-20T11:59:51.846Z,57.45
2017-08-20T12:01:04.138Z,56.96
2017-08-20T12:02:16.496Z,57.47
2017-08-20T12:03:28.787Z,57.37
2017-08-20T12:04:41.055Z,57.7
2017-08-20T12:05:53.372Z,57.6
2017-08-20T12:07:05.344Z,57.99
2017-08-20T12:08:17.342Z,57.53
2017-08-20T12:09:29.595Z,57.07
2017-08-20T12:10:41.594Z,56
2017-08-20T12:11:53.601Z,55.34
2017-08-20T12:13:06.152Z,54.49
2017-08-20T12:14:18.720Z,54.1
2017-08-20T12:15:31.310Z,54.1
2017-08-20T12:16:43.889Z,53.22
2017-08-20T12:17:56.203Z,54
2017-08-20T12:19:08.492Z,52.54
2017-08-20T12:20:20.447Z,52.37
2017-08-20T12:21:32.765Z,53.05
2017-08-20T12:22:45.089Z,53.54
2017-08-20T12:23:57.737Z,52.95
2017-08-20T12:25:09.720Z,53.22
2017-08-20T12:26:21.689Z,52.93
2017-08-20T12:27:34.269Z,53.03
2017-08-20T12:28:46.541Z,55.18
2017-08-20T12:29:59.222Z,54.3
2017-08-20T12:31:11.572Z,54
2017-08-20T12:32:23.783Z,54
2017-08-20T12:33:35.513Z,54.2
2017-08-20T12:34:47.511Z,53.61
2017-08-20T12:36:00.138Z,53.03
2017-08-20T12:37:12.084Z,51.95
2017-08-20T12:38:24.020Z,51.68
2017-08-20T12:39:36.023Z,52.08
2017-08-20T12:40:48.346Z,52.17
2017-08-20T12:42:00.616Z,52.27
2017-08-20T12:43:12.962Z,51.29
2017-08-20T12:44:25.562Z,51.39
2017-08-20T12:45:37.928Z,51.98
2017-08-20T12:46:50.490Z,50.9
2017-08-20T12:48:02.777Z,51.03
2017-08-20T12:49:15.077Z,51.03
2017-08-20T12:50:27.105Z,50.83
2017-08-20T12:51:39.749Z,50.63
2017-08-20T12:52:52.293Z,50.63
2017-08-20T12:54:04.873Z,50.61
2017-08-20T12:55:17.154Z,52.86
2017-08-20T12:56:29.464Z,52.95
2017-08-20T12:57:42.319Z,52.64
2017-08-20T12:58:54.632Z,51.92
2017-08-20T13:00:07.256Z,52.02
2017-08-20T13:01:19.553Z,52.78
2017-08-20T13:02:31.898Z,52.95
2017-08-20T13:03:43.880Z,53.5
2017-08-20T13:04:56.465Z,53.21
2017-08-20T13:06:08.777Z,52.99
2017-08-20T13:07:21.374Z,53.72
2017-08-20T13:08:34.019Z,54.18
2017-08-20T13:09:46.358Z,55.35
2017-08-20T13:10:58.915Z,55.22
2017-08-20T13:12:11.593Z,56.07
2017-08-20T13:13:24.187Z,57.98
2017-08-20T13:14:36.510Z,58.64
2017-08-20T13:15:47.930Z,59.41
2017-08-20T13:17:00.264Z,59.48
2017-08-20T13:18:12.590Z,60.23
2017-08-20T13:19:24.891Z,61.19
2017-08-20T13:20:37.238Z,61.17
2017-08-20T13:21:49.902Z,61.62
2017-08-20T13:23:02.422Z,61.91
2017-08-20T13:24:14.415Z,60.82
2017-08-20T13:25:26.763Z,61.4
2017-08-20T13:26:39.411Z,62.17
2017-08-20T13:27:52.032Z,63.31
2017-08-20T13:29:03.453Z,64.53
2017-08-20T13:30:15.727Z,64.04
2017-08-20T13:31:27.761Z,63.43
2017-08-20T13:32:40.100Z,63.73
2017-08-20T13:33:52.363Z,64.08
2017-08-20T13:35:04.732Z,65.24
2017-08-20T13:36:17.038Z,66.4
2017-08-20T13:37:29.364Z,66.56
2017-08-20T13:38:41.690Z,67.33
2017-08-20T13:39:54.018Z,66.85
2017-08-20T13:41:06.628Z,66.75
2017-08-20T13:42:19.216Z,67.11
2017-08-20T13:43:31.836Z,66.82
2017-08-20T13:44:44.188Z,67.49
2017-08-20T13:45:56.471Z,66.97
2017-08-20T13:47:09.134Z,67.65
2017-08-20T13:48:21.425Z,68.33
2017-08-20T13:49:33.663Z,68.04
2017-08-20T13:50:45.618Z,67.94
2017-08-20T13:51:58.189Z,69.29
2017-08-20T13:53:10.494Z,69.07
2017-08-20T13:54:22.508Z,69.55
2017-08-20T13:55:34.768Z,70.13
2017-08-20T13:56:46.788Z,70.8
2017-08-20T13:57:59.427Z,71.09
2017-08-20T13:59:11.985Z,70.42
2017-08-20T14:00:24.534Z,70.57
2017-08-20T14:01:37.129Z,71.73
2017-08-20T14:02:49.784Z,71.44
2017-08-20T14:04:02.372Z,71.25
2017-08-20T14:05:14.654Z,71.15
2017-08-20T14:06:26.885Z,71.15
2017-08-20T14:07:39.506Z,72.12
2017-08-20T14:08:52.125Z,72.12
2017-08-20T14:10:04.147Z,72.02
2017-08-20T14:11:16.660Z,72.08
2017-08-20T14:12:29.187Z,72.08
2017-08-20T14:13:41.209Z,72.08
2017-08-20T14:14:53.459Z,73.53
2017-08-20T14:16:05.743Z,74.2
2017-08-20T14:17:18.249Z,73.33
2017-08-20T14:18:30.575Z,73.72
2017-08-20T14:19:42.288Z,73.82
2017-08-20T14:20:54.587Z,73.14
2017-08-20T14:22:07.128Z,73.43
2017-08-20T14:23:19.100Z,72.75
2017-08-20T14:24:31.398Z,73.72
2017-08-20T14:25:43.690Z,73.82
2017-08-20T14:26:55.937Z,72.85
2017-08-20T14:28:08.210Z,73.49
2017-08-20T14:29:20.881Z,73.88
2017-08-20T14:30:33.476Z,73.58
2017-08-20T14:31:45.797Z,74.55
2017-08-20T14:32:58.356Z,74.16
2017-08-20T14:34:10.953Z,75.32
2017-08-20T14:35:23.542Z,75.42
2017-08-20T14:36:35.850Z,75.23
2017-08-20T14:37:48.446Z,74.74
2017-08-20T14:38:59.792Z,74.74
2017-08-20T14:40:12.113Z,75.23
2017-08-20T14:41:24.700Z,74.84
2017-08-20T14:42:37.032Z,75.71
2017-08-20T14:43:49.040Z,74.93
2017-08-20T14:45:01.026Z,75.03
2017-08-20T14:46:12.696Z,74.78
2017-08-20T14:47:25.241Z,74.68
2017-08-20T14:48:37.832Z,74.2
2017-08-20T14:49:49.881Z,73.53
2017-08-20T14:51:02.117Z,73.72
2017-08-20T14:52:14.702Z,73.82
2017-08-20T14:53:27.031Z,74.68
2017-08-20T14:54:39.644Z,74.91
2017-08-20T14:55:51.882Z,75.3
2017-08-20T14:57:03.827Z,75.4
2017-08-20T14:58:16.159Z,76.07
2017-08-20T14:59:28.767Z,75.68
2017-08-20T15:00:41.140Z,76.36
2017-08-20T15:01:53.116Z,75.88
2017-08-20T15:03:05.142Z,76.45
2017-08-20T15:04:17.458Z,76.36
2017-08-20T15:05:30.060Z,76.17
2017-08-20T15:06:42.385Z,75.97
2017-08-20T15:07:54.936Z,75.2
2017-08-20T15:09:07.233Z,75.84
2017-08-20T15:10:19.204Z,76.61
2017-08-20T15:11:31.767Z,77.09
2017-08-20T15:12:44.328Z,77.48
2017-08-20T15:13:56.585Z,77.86
2017-08-20T15:15:09.154Z,78.06
2017-08-20T15:16:21.512Z,78.25
2017-08-20T15:17:33.838Z,78.25
2017-08-20T15:18:46.367Z,77.06
2017-08-20T15:19:59.001Z,77.58
2017-08-20T15:21:11.258Z,77.38
2017-08-20T15:22:23.828Z,77.48
2017-08-20T15:23:35.457Z,77
2017-08-20T15:24:47.770Z,77
2017-08-20T15:26:00.001Z,76.9
2017-08-20T15:27:12.292Z,77.09
2017-08-20T15:28:24.971Z,77.09
2017-08-20T15:29:37.260Z,76.9
2017-08-20T15:30:49.861Z,76.71
2017-08-20T15:32:02.101Z,76.42
2017-08-20T15:33:14.728Z,76.8
2017-08-20T15:34:27.318Z,76.8
2017-08-20T15:35:39.612Z,76.8